Aurora, Maine
Current Conditions -  °F | °C
As of 2:53 PM on Thursday 30 Oct 2014 (Local Time) from KBGR Reporting Station
Broken Clouds Broken Clouds  
Wind Chill: 51°   Ceiling: 3000
Heat Index: 51°   Visibility: 10mi
Dew Point: 40°   Wind: 0mph
Humidity: 66%   Direction: NA
Pressure: 29.86"   Gusts: NA
Location:  44.85°N, 68.33°W
Report Text: KBGR 301853Z 00000KT 10SM BKN030 BKN050 11/04 A2986 RMK AO2 RAB52E53 SLP112 P0000 T01060044
Loading
Personal Weather Stations






























Interactive Weather Map New forecast layout! Learn more

10-Day Weather Forecast

Advertisements
Track Severe Weather on mobile